createdAt,value
2022-07-29T00:01:19.337Z,2.00
2022-07-29T00:03:47.890Z,2.10
2022-07-29T00:06:16.244Z,2.08
2022-07-29T00:08:44.301Z,2.10
2022-07-29T00:11:13.908Z,2.40
2022-07-29T00:13:41.911Z,2.10
2022-07-29T00:16:10.002Z,2.05
2022-07-29T00:18:37.989Z,2.00
2022-07-29T00:21:05.957Z,1.80
2022-07-29T00:23:36.844Z,1.83
2022-07-29T00:26:05.118Z,2.00
2022-07-29T00:28:34.537Z,1.98
2022-07-29T00:31:02.854Z,1.90
2022-07-29T00:33:31.096Z,2.00
2022-07-29T00:35:58.060Z,2.00
2022-07-29T00:38:26.010Z,1.98
2022-07-29T00:40:55.154Z,2.08
2022-07-29T00:43:23.213Z,1.95
2022-07-29T00:45:52.668Z,2.15
2022-07-29T00:48:20.670Z,2.20
2022-07-29T00:50:48.795Z,1.90
2022-07-29T00:53:16.796Z,2.30
2022-07-29T00:55:44.830Z,1.92
2022-07-29T00:58:14.561Z,2.20
2022-07-29T01:00:45.465Z,1.85
2022-07-29T01:03:15.084Z,1.90
2022-07-29T01:05:48.200Z,2.20
2022-07-29T01:08:20.812Z,2.10
2022-07-29T01:10:49.908Z,2.10
2022-07-29T01:13:18.970Z,2.20
2022-07-29T01:15:50.762Z,2.28
2022-07-29T01:18:26.223Z,2.08
2022-07-29T01:21:10.147Z,2.33
2022-07-29T01:24:00.989Z,2.08
2022-07-29T01:26:44.094Z,2.10
2022-07-29T01:29:36.052Z,2.47
2022-07-29T01:32:18.134Z,2.20
2022-07-29T01:35:00.483Z,2.20
2022-07-29T01:37:31.666Z,2.38
2022-07-29T01:40:03.529Z,2.25
2022-07-29T01:42:37.595Z,2.30
2022-07-29T01:45:14.525Z,2.35
2022-07-29T01:47:48.749Z,2.20
2022-07-29T01:50:19.783Z,2.38
2022-07-29T01:52:56.787Z,2.22
2022-07-29T01:55:29.178Z,2.65
2022-07-29T01:57:59.997Z,2.35
2022-07-29T02:00:30.604Z,2.13
2022-07-29T02:03:00.813Z,2.55
2022-07-29T02:05:31.585Z,2.38
2022-07-29T02:08:01.246Z,2.75
2022-07-29T02:10:33.406Z,2.50
2022-07-29T02:13:02.776Z,2.72
2022-07-29T02:15:35.886Z,2.42
2022-07-29T02:18:08.243Z,2.60
2022-07-29T02:20:37.039Z,2.60
2022-07-29T02:23:05.497Z,2.45
2022-07-29T02:25:37.109Z,2.35
2022-07-29T02:28:07.418Z,2.30
2022-07-29T02:30:42.083Z,2.42
2022-07-29T02:33:14.189Z,2.10
2022-07-29T02:35:43.793Z,2.50
2022-07-29T02:38:33.879Z,2.60
2022-07-29T02:41:05.440Z,2.45
2022-07-29T02:43:35.930Z,2.60
2022-07-29T02:46:12.679Z,2.70
2022-07-29T02:49:01.563Z,2.95
2022-07-29T02:51:43.538Z,2.80
2022-07-29T02:54:17.712Z,2.72
2022-07-29T02:56:47.530Z,2.58
2022-07-29T02:59:20.217Z,2.75
2022-07-29T03:01:50.564Z,2.72
2022-07-29T03:04:21.471Z,3.00
2022-07-29T03:06:51.797Z,2.63
2022-07-29T03:09:20.682Z,3.08
2022-07-29T03:11:50.154Z,2.75
2022-07-29T03:14:20.994Z,3.00
2022-07-29T03:16:51.687Z,2.72
2022-07-29T03:19:20.175Z,2.83
2022-07-29T03:21:48.817Z,3.03
2022-07-29T03:24:35.680Z,3.28
2022-07-29T03:27:05.093Z,3.13
2022-07-29T03:29:34.726Z,2.95
2022-07-29T03:32:08.214Z,3.33
2022-07-29T03:34:37.881Z,3.30
2022-07-29T03:37:07.139Z,4.30
2022-07-29T03:39:40.728Z,3.63
2022-07-29T03:42:10.460Z,3.50
2022-07-29T03:44:40.062Z,3.85
2022-07-29T03:47:11.770Z,3.70
2022-07-29T03:49:41.579Z,3.92
2022-07-29T03:52:10.163Z,3.80
2022-07-29T03:54:38.343Z,3.55
2022-07-29T03:57:08.908Z,3.95
2022-07-29T03:59:37.488Z,3.85
2022-07-29T04:02:06.753Z,3.80
2022-07-29T04:04:37.181Z,4.35
2022-07-29T04:07:05.990Z,4.03
2022-07-29T04:09:34.185Z,4.32
2022-07-29T04:12:04.218Z,4.20
2022-07-29T04:14:33.284Z,4.38
2022-07-29T04:17:01.950Z,4.15
2022-07-29T04:19:29.840Z,4.00
2022-07-29T04:21:59.834Z,4.20
2022-07-29T04:24:28.357Z,4.47
2022-07-29T04:26:57.002Z,4.30
2022-07-29T04:29:24.958Z,4.30
2022-07-29T04:31:52.928Z,4.45
2022-07-29T04:34:21.223Z,4.30
2022-07-29T04:36:49.233Z,4.40
2022-07-29T04:39:22.919Z,4.50
2022-07-29T04:41:52.494Z,4.57
2022-07-29T04:44:28.401Z,4.50
2022-07-29T04:46:58.301Z,4.15
2022-07-29T04:49:26.418Z,3.72
2022-07-29T04:51:54.379Z,4.22
2022-07-29T04:54:23.734Z,3.90
2022-07-29T04:56:52.737Z,4.47
2022-07-29T04:59:20.789Z,4.00
2022-07-29T05:01:48.833Z,4.00
2022-07-29T05:04:17.355Z,4.28
2022-07-29T05:06:45.593Z,3.63
2022-07-29T05:09:13.507Z,3.50
2022-07-29T05:11:42.934Z,3.83
2022-07-29T05:14:10.947Z,3.53
2022-07-29T05:16:40.143Z,3.30
2022-07-29T05:19:13.699Z,3.63
2022-07-29T05:21:42.726Z,3.42
2022-07-29T05:24:10.634Z,3.42
2022-07-29T05:26:38.600Z,3.40
2022-07-29T05:29:08.177Z,2.70
2022-07-29T05:31:56.776Z,2.88
2022-07-29T05:34:26.022Z,2.90
2022-07-29T05:36:54.431Z,2.63
2022-07-29T05:39:22.688Z,2.65
2022-07-29T05:42:11.458Z,2.92
2022-07-29T05:44:41.375Z,2.80
2022-07-29T05:47:09.699Z,2.83
2022-07-29T05:49:37.671Z,2.53
2022-07-29T05:52:06.374Z,2.65
2022-07-29T05:54:34.331Z,2.30
2022-07-29T05:57:02.379Z,2.40
2022-07-29T05:59:30.767Z,2.47
2022-07-29T06:02:00.273Z,2.97
2022-07-29T06:04:28.402Z,2.80
2022-07-29T06:06:56.484Z,3.08
2022-07-29T06:09:24.862Z,2.92
2022-07-29T06:11:53.339Z,2.60
2022-07-29T06:14:21.364Z,2.67
2022-07-29T06:16:49.493Z,2.40
2022-07-29T06:19:19.158Z,2.60
2022-07-29T06:21:48.130Z,2.65
2022-07-29T06:24:17.779Z,2.85
2022-07-29T06:26:46.452Z,2.80
2022-07-29T06:29:14.616Z,3.05
2022-07-29T06:31:42.717Z,2.63
2022-07-29T06:34:10.848Z,2.88
2022-07-29T06:36:41.146Z,2.70
2022-07-29T06:39:11.712Z,2.70
2022-07-29T06:41:40.498Z,2.55
2022-07-29T06:44:08.630Z,2.70
2022-07-29T06:46:37.607Z,3.20
2022-07-29T06:49:05.999Z,3.33
2022-07-29T06:51:34.224Z,2.90
2022-07-29T06:54:05.998Z,2.85
2022-07-29T06:56:39.595Z,2.72
2022-07-29T06:59:09.505Z,2.83
2022-07-29T07:01:38.118Z,2.90
2022-07-29T07:04:06.279Z,2.80
2022-07-29T07:06:34.748Z,2.80
2022-07-29T07:09:05.513Z,2.47
2022-07-29T07:11:33.483Z,3.13
2022-07-29T07:14:03.783Z,2.70
2022-07-29T07:16:32.322Z,3.35
2022-07-29T07:19:00.461Z,2.95
2022-07-29T07:21:30.284Z,2.70
2022-07-29T07:23:58.893Z,2.80
2022-07-29T07:26:28.640Z,2.70
2022-07-29T07:28:56.567Z,2.83
2022-07-29T07:31:24.793Z,2.60
2022-07-29T07:33:54.452Z,2.67
2022-07-29T07:36:22.749Z,2.65
2022-07-29T07:38:51.425Z,2.80
2022-07-29T07:41:19.573Z,2.78
2022-07-29T07:43:49.008Z,2.97
2022-07-29T07:46:17.548Z,2.83
2022-07-29T07:48:45.967Z,2.47
2022-07-29T07:51:14.109Z,2.60
2022-07-29T07:53:42.172Z,2.90
2022-07-29T07:56:12.228Z,2.75
2022-07-29T07:58:41.201Z,3.00
2022-07-29T08:01:11.315Z,2.80
2022-07-29T08:03:39.932Z,2.80
2022-07-29T08:06:08.785Z,3.13
2022-07-29T08:08:37.304Z,2.75
2022-07-29T08:11:09.516Z,2.63
2022-07-29T08:13:39.176Z,2.72
2022-07-29T08:16:13.838Z,2.85
2022-07-29T08:18:44.492Z,3.00
2022-07-29T08:21:15.135Z,3.00
2022-07-29T08:23:54.354Z,2.63
2022-07-29T08:26:27.083Z,3.80
2022-07-29T08:28:55.045Z,3.10
2022-07-29T08:31:23.108Z,3.20
2022-07-29T08:33:52.931Z,3.05
2022-07-29T08:36:22.330Z,3.15
2022-07-29T08:38:50.659Z,2.95
2022-07-29T08:41:20.065Z,2.92
2022-07-29T08:43:48.490Z,2.92
2022-07-29T08:46:18.035Z,3.38
2022-07-29T08:48:46.532Z,3.30
2022-07-29T08:51:18.252Z,3.22
2022-07-29T08:53:48.551Z,3.33
2022-07-29T08:56:18.957Z,3.33
2022-07-29T08:58:50.661Z,3.05
2022-07-29T09:01:35.254Z,3.35
2022-07-29T09:04:08.125Z,3.40
2022-07-29T09:06:40.406Z,3.40
2022-07-29T09:09:10.375Z,3.45
2022-07-29T09:11:39.881Z,3.30
2022-07-29T09:14:08.016Z,3.83
2022-07-29T09:17:01.063Z,4.05
2022-07-29T09:19:31.004Z,3.70
2022-07-29T09:22:03.731Z,3.20
2022-07-29T09:24:43.410Z,3.55
2022-07-29T09:27:13.476Z,3.70
2022-07-29T09:29:41.801Z,3.15
2022-07-29T09:32:12.479Z,3.92
2022-07-29T09:34:40.607Z,3.70
2022-07-29T09:37:10.183Z,3.38
2022-07-29T09:39:45.151Z,3.10
2022-07-29T09:42:16.866Z,3.33
2022-07-29T09:44:46.728Z,3.17
2022-07-29T09:47:15.067Z,3.28
2022-07-29T09:49:59.160Z,3.42
2022-07-29T09:52:29.739Z,3.17
2022-07-29T09:55:07.378Z,3.58
2022-07-29T09:57:35.342Z,4.00
2022-07-29T10:00:09.155Z,3.78
2022-07-29T10:02:39.126Z,3.70
2022-07-29T10:05:17.676Z,3.60
2022-07-29T10:07:53.717Z,3.70
2022-07-29T10:10:24.930Z,4.10
2022-07-29T10:12:56.027Z,3.75
2022-07-29T10:15:26.009Z,4.10
2022-07-29T10:17:54.544Z,3.80
2022-07-29T10:20:23.388Z,3.80
2022-07-29T10:22:54.170Z,4.32
2022-07-29T10:25:22.950Z,4.13
2022-07-29T10:27:53.188Z,4.28
2022-07-29T10:30:22.643Z,4.10
2022-07-29T10:32:59.642Z,4.07
2022-07-29T10:35:50.581Z,3.67
2022-07-29T10:38:45.999Z,3.67
2022-07-29T10:41:47.654Z,4.93
2022-07-29T10:44:19.490Z,3.95
2022-07-29T10:46:52.627Z,3.65
2022-07-29T10:49:25.029Z,3.40
2022-07-29T10:51:59.117Z,3.53
2022-07-29T10:54:47.319Z,4.53
2022-07-29T10:57:54.534Z,3.67
2022-07-29T11:00:29.657Z,3.15
2022-07-29T11:02:59.433Z,3.17
2022-07-29T11:05:31.984Z,2.80
2022-07-29T11:08:26.277Z,3.38
2022-07-29T11:11:32.706Z,2.90
2022-07-29T11:14:04.736Z,2.85
2022-07-29T11:17:06.449Z,2.72
2022-07-29T11:19:40.094Z,2.28
2022-07-29T11:22:11.582Z,2.65
2022-07-29T11:24:50.292Z,2.38
2022-07-29T11:27:21.185Z,2.45
2022-07-29T11:29:56.359Z,2.22
2022-07-29T11:32:29.097Z,2.22
2022-07-29T11:35:17.269Z,2.35
2022-07-29T11:37:52.394Z,2.15
2022-07-29T11:40:23.876Z,2.10
2022-07-29T11:42:52.762Z,2.00
2022-07-29T11:45:42.759Z,2.60
2022-07-29T11:48:28.483Z,2.72
2022-07-29T11:50:59.962Z,2.33
2022-07-29T11:53:29.234Z,2.50
2022-07-29T11:56:02.473Z,2.47
2022-07-29T11:58:31.247Z,2.38
2022-07-29T12:01:04.782Z,2.30
2022-07-29T12:03:35.692Z,2.63
2022-07-29T12:06:07.927Z,2.42
2022-07-29T12:08:43.730Z,2.55
2022-07-29T12:11:20.783Z,2.45
2022-07-29T12:13:50.205Z,3.30
2022-07-29T12:16:25.143Z,2.95
2022-07-29T12:19:00.217Z,2.83
2022-07-29T12:21:29.338Z,3.33
2022-07-29T12:24:04.807Z,3.03
2022-07-29T12:26:37.365Z,2.72
2022-07-29T12:29:11.354Z,2.70
2022-07-29T12:31:45.839Z,2.90
2022-07-29T12:34:15.142Z,3.05
2022-07-29T12:36:44.259Z,2.78
2022-07-29T12:39:13.510Z,2.80
2022-07-29T12:41:41.574Z,2.88
2022-07-29T12:44:09.703Z,2.60
2022-07-29T12:46:37.965Z,2.70
2022-07-29T12:49:09.172Z,2.80
2022-07-29T12:51:40.577Z,3.15
2022-07-29T12:54:12.290Z,2.78
2022-07-29T12:56:43.641Z,2.70
2022-07-29T12:59:17.674Z,2.88
2022-07-29T13:01:50.146Z,2.80
2022-07-29T13:04:29.822Z,2.70
2022-07-29T13:07:02.365Z,2.47
2022-07-29T13:09:40.545Z,2.63
2022-07-29T13:12:11.247Z,2.53
2022-07-29T13:14:40.774Z,2.72
2022-07-29T13:17:10.360Z,2.45
2022-07-29T13:19:42.723Z,2.40
2022-07-29T13:22:12.015Z,2.53
2022-07-29T13:24:50.817Z,2.38
2022-07-29T13:27:19.798Z,3.00
2022-07-29T13:29:48.278Z,2.40
2022-07-29T13:32:16.540Z,2.47
2022-07-29T13:34:46.291Z,2.30
2022-07-29T13:37:14.667Z,2.63
2022-07-29T13:39:42.688Z,2.67
2022-07-29T13:42:21.295Z,2.63
2022-07-29T13:44:49.777Z,2.80
2022-07-29T13:47:18.047Z,2.50
2022-07-29T13:49:47.546Z,2.40
2022-07-29T13:52:16.535Z,2.42
2022-07-29T13:54:44.690Z,2.65
2022-07-29T13:57:13.887Z,2.60
2022-07-29T13:59:41.948Z,3.00
2022-07-29T14:02:10.966Z,2.40
2022-07-29T14:04:39.717Z,2.80
2022-07-29T14:07:09.562Z,2.80
2022-07-29T14:09:41.419Z,3.08
2022-07-29T14:12:10.594Z,2.55
2022-07-29T14:14:38.875Z,2.85
2022-07-29T14:17:08.242Z,2.80
2022-07-29T14:19:39.114Z,2.60
2022-07-29T14:22:10.870Z,3.85
2022-07-29T14:24:39.686Z,2.70
2022-07-29T14:27:09.622Z,2.97
2022-07-29T14:29:38.902Z,2.78
2022-07-29T14:32:07.982Z,3.03
2022-07-29T14:34:36.287Z,2.90
2022-07-29T14:37:06.616Z,2.85
2022-07-29T14:39:42.888Z,2.80
2022-07-29T14:42:12.892Z,2.47
2022-07-29T14:44:42.764Z,2.95
2022-07-29T14:47:11.635Z,2.80
2022-07-29T14:49:39.621Z,2.55
2022-07-29T14:52:07.578Z,2.65
2022-07-29T14:54:36.998Z,3.45
2022-07-29T14:57:05.117Z,2.92
2022-07-29T14:59:33.081Z,2.88
2022-07-29T15:02:01.745Z,2.63
2022-07-29T15:04:35.291Z,2.45
2022-07-29T15:07:04.422Z,2.47
2022-07-29T15:09:32.458Z,2.60
2022-07-29T15:12:06.176Z,2.63
2022-07-29T15:14:34.358Z,2.40
2022-07-29T15:17:02.374Z,2.70
2022-07-29T15:19:32.607Z,2.63
2022-07-29T15:22:01.301Z,2.38
2022-07-29T15:24:29.909Z,2.40
2022-07-29T15:26:57.847Z,2.65
2022-07-29T15:29:30.552Z,2.58
2022-07-29T15:31:59.178Z,2.63
2022-07-29T15:34:27.516Z,2.10
2022-07-29T15:36:55.450Z,2.65
2022-07-29T15:39:24.037Z,2.10
2022-07-29T15:41:52.346Z,2.10
2022-07-29T15:44:21.035Z,2.30
2022-07-29T15:47:07.069Z,2.20
2022-07-29T15:49:47.059Z,2.40
2022-07-29T15:52:19.000Z,2.35
2022-07-29T15:54:52.797Z,2.35
2022-07-29T15:57:20.861Z,2.40
2022-07-29T15:59:50.755Z,2.40
2022-07-29T16:02:20.358Z,2.88
2022-07-29T16:04:48.498Z,3.97
2022-07-29T16:07:16.665Z,2.85
2022-07-29T16:09:50.798Z,2.20
2022-07-29T16:12:21.128Z,2.60
2022-07-29T16:14:51.127Z,2.30
2022-07-29T16:17:22.439Z,2.47
2022-07-29T16:19:50.448Z,2.25
2022-07-29T16:22:18.477Z,2.22
2022-07-29T16:24:46.399Z,2.53
2022-07-29T16:27:14.449Z,2.20
2022-07-29T16:29:42.595Z,2.33
2022-07-29T16:32:10.641Z,2.47
2022-07-29T16:34:41.621Z,2.47
2022-07-29T16:37:09.550Z,2.30
2022-07-29T16:39:37.717Z,2.58
2022-07-29T16:42:05.833Z,2.22
2022-07-29T16:44:35.460Z,3.08
2022-07-29T16:47:04.141Z,2.53
2022-07-29T16:49:32.482Z,2.42
2022-07-29T16:52:02.126Z,2.60
2022-07-29T16:54:30.272Z,2.55
2022-07-29T16:57:00.752Z,2.70
2022-07-29T16:59:29.859Z,2.60
2022-07-29T17:02:02.732Z,2.92
2022-07-29T17:04:31.048Z,2.30
2022-07-29T17:07:00.000Z,2.30
2022-07-29T17:09:30.722Z,2.20
2022-07-29T17:11:59.624Z,2.38
2022-07-29T17:14:29.673Z,3.53
2022-07-29T17:17:02.170Z,2.90
2022-07-29T17:19:33.732Z,2.90
2022-07-29T17:22:14.310Z,2.80
2022-07-29T17:24:49.995Z,2.85
2022-07-29T17:27:18.665Z,2.85
2022-07-29T17:29:46.832Z,2.50
2022-07-29T17:32:17.870Z,2.63
2022-07-29T17:34:45.944Z,3.00
2022-07-29T17:37:14.044Z,2.90
2022-07-29T17:39:43.332Z,3.15
2022-07-29T17:42:14.782Z,2.80
2022-07-29T17:44:43.159Z,3.15
2022-07-29T17:47:15.924Z,2.80
2022-07-29T17:49:44.657Z,3.03
2022-07-29T17:52:12.946Z,3.08
2022-07-29T17:54:40.917Z,2.90
2022-07-29T17:57:08.945Z,2.72
2022-07-29T17:59:38.586Z,2.90
2022-07-29T18:02:06.761Z,3.30
2022-07-29T18:04:34.905Z,3.05
2022-07-29T18:07:02.963Z,3.08
2022-07-29T18:09:31.157Z,3.10
2022-07-29T18:11:59.123Z,3.13
2022-07-29T18:14:27.149Z,3.05
2022-07-29T18:16:56.727Z,3.20
2022-07-29T18:19:28.625Z,3.75
2022-07-29T18:22:03.169Z,3.30
2022-07-29T18:24:35.773Z,3.40
2022-07-29T18:27:03.816Z,2.97
2022-07-29T18:29:31.755Z,3.55
2022-07-29T18:32:02.062Z,3.58
2022-07-29T18:34:30.101Z,3.67
2022-07-29T18:37:05.531Z,3.58
2022-07-29T18:39:33.499Z,3.22
2022-07-29T18:42:01.799Z,3.70
2022-07-29T18:44:29.810Z,3.25
2022-07-29T18:46:58.159Z,3.78
2022-07-29T18:49:28.247Z,3.85
2022-07-29T18:51:57.975Z,3.60
2022-07-29T18:54:31.471Z,3.30
2022-07-29T18:56:59.712Z,3.80
2022-07-29T18:59:31.109Z,3.88
2022-07-29T19:01:59.130Z,4.03
2022-07-29T19:04:28.639Z,4.28
2022-07-29T19:06:59.276Z,4.15
2022-07-29T19:09:28.217Z,4.63
2022-07-29T19:11:58.002Z,4.82
2022-07-29T19:14:28.803Z,4.72
2022-07-29T19:16:57.057Z,4.82
2022-07-29T19:19:25.506Z,5.85
2022-07-29T19:21:57.979Z,7.18
2022-07-29T19:24:28.896Z,8.55
2022-07-29T19:26:57.408Z,9.63
2022-07-29T19:29:28.808Z,11.30
2022-07-29T19:31:56.735Z,13.02
2022-07-29T19:34:24.643Z,14.10
2022-07-29T19:36:56.128Z,17.08
2022-07-29T19:39:31.998Z,19.10
2022-07-29T19:42:03.698Z,20.92
2022-07-29T19:44:31.847Z,23.42
2022-07-29T19:47:00.705Z,21.98
2022-07-29T19:49:28.969Z,21.48
2022-07-29T19:51:58.420Z,22.83
2022-07-29T19:54:26.884Z,22.20
2022-07-29T19:56:54.763Z,21.90
2022-07-29T19:59:23.952Z,22.95
2022-07-29T20:01:52.691Z,22.42
2022-07-29T20:04:23.337Z,23.05
2022-07-29T20:07:01.458Z,23.50
2022-07-29T20:09:31.234Z,24.10
2022-07-29T20:11:59.493Z,23.48
2022-07-29T20:14:27.732Z,24.42
2022-07-29T20:16:55.682Z,23.45
2022-07-29T20:19:23.643Z,23.30
2022-07-29T20:21:54.645Z,24.17
2022-07-29T20:24:23.089Z,24.13
2022-07-29T20:26:55.459Z,23.88
2022-07-29T20:29:23.852Z,24.27
2022-07-29T20:31:56.462Z,23.23
2022-07-29T20:34:25.311Z,23.33
2022-07-29T20:36:53.309Z,23.38
2022-07-29T20:39:22.067Z,22.85
2022-07-29T20:41:50.553Z,22.52
2022-07-29T20:44:19.961Z,23.50
2022-07-29T20:46:48.945Z,23.75
2022-07-29T20:49:19.235Z,23.83
2022-07-29T20:51:47.257Z,23.35
2022-07-29T20:54:15.352Z,22.58
2022-07-29T20:56:43.477Z,22.20
2022-07-29T20:59:13.383Z,21.88
2022-07-29T21:01:42.873Z,22.48
2022-07-29T21:04:11.082Z,23.42
2022-07-29T21:06:41.472Z,23.40
2022-07-29T21:09:09.494Z,23.65
2022-07-29T21:11:44.622Z,24.23
2022-07-29T21:14:20.632Z,23.80
2022-07-29T21:16:50.270Z,23.88
2022-07-29T21:19:18.239Z,22.60
2022-07-29T21:21:46.228Z,23.65
2022-07-29T21:24:14.083Z,24.48
2022-07-29T21:26:47.272Z,23.52
2022-07-29T21:29:18.471Z,24.02
2022-07-29T21:31:46.525Z,23.08
2022-07-29T21:34:18.229Z,23.65
2022-07-29T21:36:48.777Z,23.92
2022-07-29T21:39:17.145Z,23.38
2022-07-29T21:41:45.059Z,24.20
2022-07-29T21:44:13.204Z,25.40
2022-07-29T21:46:43.462Z,25.65
2022-07-29T21:49:11.736Z,25.95
2022-07-29T21:51:41.194Z,25.67
2022-07-29T21:54:09.200Z,25.25
2022-07-29T21:56:37.190Z,25.10
2022-07-29T21:59:05.406Z,23.67
2022-07-29T22:01:39.330Z,23.95
2022-07-29T22:04:07.841Z,24.15
2022-07-29T22:06:47.364Z,24.17
2022-07-29T22:09:16.740Z,22.73
2022-07-29T22:11:44.709Z,23.27
2022-07-29T22:14:14.932Z,23.80
2022-07-29T22:16:43.134Z,21.90
2022-07-29T22:19:11.210Z,23.20
2022-07-29T22:21:39.215Z,22.73
2022-07-29T22:24:07.913Z,23.73
2022-07-29T22:26:39.472Z,24.70
2022-07-29T22:29:08.088Z,23.70
2022-07-29T22:31:36.104Z,22.98
2022-07-29T22:34:04.517Z,24.40
2022-07-29T22:36:32.715Z,23.10
2022-07-29T22:39:00.716Z,22.10
2022-07-29T22:41:28.813Z,22.35
2022-07-29T22:43:58.161Z,22.77
2022-07-29T22:46:26.228Z,22.85
2022-07-29T22:48:54.265Z,22.17
2022-07-29T22:51:22.304Z,23.23
2022-07-29T22:53:50.288Z,24.00
2022-07-29T22:56:18.848Z,23.52
2022-07-29T22:58:46.749Z,22.95
2022-07-29T23:01:16.373Z,22.20
2022-07-29T23:04:04.531Z,22.55
2022-07-29T23:06:32.656Z,21.50
2022-07-29T23:09:00.728Z,23.25
2022-07-29T23:11:28.729Z,22.23
2022-07-29T23:13:56.764Z,24.30
2022-07-29T23:16:27.051Z,22.60
2022-07-29T23:18:55.271Z,22.10
2022-07-29T23:21:23.332Z,23.17
2022-07-29T23:23:51.431Z,24.48
2022-07-29T23:26:19.703Z,24.58
2022-07-29T23:28:47.763Z,29.30
2022-07-29T23:31:15.794Z,33.58
2022-07-29T23:33:45.165Z,43.80
2022-07-29T23:36:13.265Z,36.45
2022-07-29T23:38:41.679Z,27.00
2022-07-29T23:41:10.172Z,24.52
2022-07-29T23:43:38.631Z,23.90
2022-07-29T23:46:06.672Z,24.25
2022-07-29T23:48:35.182Z,23.80
2022-07-29T23:51:04.616Z,22.70
2022-07-29T23:53:32.594Z,23.70
2022-07-29T23:56:00.579Z,23.10
2022-07-29T23:58:28.703Z,22.27
